Ark, VA

9:45 AM EDT on April 21, 2015 (GMT -0400)
Deer Run | | Change Station
CLOSE
Current Station
Personal Weather Station
Location: Gloucester, VA
Elevation: 105 ft
Nearby Weather Stations

Elev 105 ft 37.41 °N, 76.56 °W | Updated 18 seconds ago

Partly Cloudy
Partly Cloudy
63.1 °F
Feels Like 63.1 °F
N
0.0
Wind Variable Wind from SE
Gusts 8.3 mph

Today
High -- | Low -- °F
--% Chance of Precip.
Yesterday
High -- | Low -- °F
Precip. -- in
6:23 AM 7:46 PM
Waxing Crescent, 10% visible
Pressure 29.82 in
Visibility 10.0 miles
Clouds Clear
Dew Point 23 °F
Humidity 21%
Rainfall in
Snow Depth Not available.
UV 4 out of 12
Pollen 10.40 out of 12
Air Quality Not available.
Flu Activity Local Activity
METAR KFYJ 211335Z AUTO 31009G19KT 10SM CLR 19/M01 A2982 RMK AO2 T01881013

More Conditions Fewer Conditions

Pressure 29.82 in
Visibility 10.0 miles
Clouds Clear
Dew Point 23 °F
Humidity 21%
Rainfall in
Snow Depth Not available.
UV 4 out of 12
Pollen 10.40 out of 12
Air Quality Not available.
Flu Activity Local Activity
METAR KFYJ 211335Z AUTO 31009G19KT 10SM CLR 19/M01 A2982 RMK AO2 T01881013

More Conditions Fewer Conditions

10-Day Weather Forecast

Almanac

Astronomy

Apr. 21, 2015 Rise Set
Actual Time
Civil Twilight
Nautical Twilight
Astronomical Twilight
Moon
Length of Visible Light
Length of Day
Tomorrow will be .
, % of the Moon is Illuminated

Today's Extremes

State Highs State Lows

Community

WunderPhotos

Upload Photos

1,815,383 photos uploaded!

WunderBlogs® & News

Nearby

Air Quality

  Air Quality AQ Index Pollutant
Not available.

Snow Depth

Station Depth Elevation

Earthquake Activity

City Distance Mag. Time & Date
Minimum magnitude displayed is 2.5.

Coastal Water Temperatures

Place Temperature

Stations

Nearby Weather Stations

Station Location Temp. Windchill Dew Point Humidity Wind Precip. Elev Updated Type